Time;durP1;ratioP1;P1;durP2;ratioP2;P2;SDS_P1;SDS_P2;PMS_P1;PMS_P2;Temp;Humidity;BMP_temperature;BMP_pressure;BME280_temperature;BME280_humidity;BME280_pressure;Samples;Min_cycle;Max_cycle;Signal;HPM_P1;HPM_P2
2021/07/08 00:00:40;;;;;;;8.52;4.90;;;;;;;19.79;52.54;101786.84;4951790;28;114156;-72
2021/07/08 00:03:07;;;;;;;7.20;4.75;;;;;;;19.77;52.53;101788.78;4955500;28;113723;-72
2021/07/08 00:05:39;;;;;;;8.45;4.95;;;;;;;19.74;52.51;101789.00;4942530;28;125996;-72
2021/07/08 00:08:06;;;;;;;8.27;5.10;;;;;;;19.73;52.63;101798.03;4952328;28;123573;-72
2021/07/08 00:10:41;;;;;;;6.47;4.88;;;;;;;19.71;52.89;101799.94;4922746;28;115657;-72
2021/07/08 00:13:09;;;;;;;6.65;4.95;;;;;;;19.69;52.68;101796.50;4954385;28;115460;-72
2021/07/08 00:15:37;;;;;;;8.52;5.25;;;;;;;19.67;52.62;101793.91;4957253;28;123863;-72
2021/07/08 00:18:09;;;;;;;7.30;5.00;;;;;;;19.63;52.94;101798.63;4956999;28;125322;-72
2021/07/08 00:20:39;;;;;;;8.00;5.07;;;;;;;19.63;52.80;101804.00;4960476;28;114466;-73
2021/07/08 00:23:06;;;;;;;7.30;5.20;;;;;;;19.62;52.78;101804.97;4956862;28;114472;-72
2021/07/08 00:25:34;;;;;;;6.57;4.72;;;;;;;19.60;52.92;101798.84;4957014;28;123914;-73
2021/07/08 00:28:01;;;;;;;7.88;5.53;;;;;;;19.60;52.99;101804.22;4955410;28;123625;-72
2021/07/08 00:30:28;;;;;;;7.55;5.15;;;;;;;19.59;53.17;101802.50;4955961;28;115190;-72
2021/07/08 00:32:56;;;;;;;8.65;5.55;;;;;;;19.60;53.30;101803.34;4957240;28;113943;-72
2021/07/08 00:35:24;;;;;;;9.85;5.38;;;;;;;19.60;53.31;101796.16;4958843;28;123554;-72
2021/07/08 00:37:52;;;;;;;9.88;5.75;;;;;;;19.61;53.42;101792.50;4956447;28;123906;-73
2021/07/08 00:40:19;;;;;;;8.75;5.63;;;;;;;19.63;53.45;101793.25;4956146;28;113596;-72
2021/07/08 00:42:47;;;;;;;7.43;5.35;;;;;;;19.63;53.55;101787.88;4957588;28;113362;-72
2021/07/08 00:45:17;;;;;;;7.88;5.60;;;;;;;19.62;53.58;101791.53;4955156;28;123183;-72
2021/07/08 00:47:44;;;;;;;6.50;4.82;;;;;;;19.60;53.33;101793.47;4925256;28;123377;-70
2021/07/08 00:50:13;;;;;;;6.88;4.80;;;;;;;19.57;53.52;101788.31;4958485;28;114533;-71
2021/07/08 00:52:40;;;;;;;5.70;4.63;;;;;;;19.54;53.48;101772.38;4956502;28;113892;-71
2021/07/08 00:55:08;;;;;;;7.53;5.10;;;;;;;19.51;53.46;101788.72;4953144;28;123847;-71
2021/07/08 00:57:39;;;;;;;8.02;5.60;;;;;;;19.48;53.50;101794.31;4955237;28;124676;-71
2021/07/08 01:00:07;;;;;;;8.02;5.20;;;;;;;19.44;53.74;101787.44;4954503;28;115413;-71
2021/07/08 01:02:34;;;;;;;8.00;5.28;;;;;;;19.42;53.65;101794.69;4924691;28;115330;-71
2021/07/08 01:05:03;;;;;;;9.15;5.00;;;;;;;19.40;53.69;101802.00;4954506;28;124819;-71
2021/07/08 01:07:30;;;;;;;7.07;5.30;;;;;;;19.37;53.64;101796.84;4957018;28;123577;-71
2021/07/08 01:09:57;;;;;;;7.00;5.10;;;;;;;19.35;53.88;101793.41;4954701;28;114677;-71
2021/07/08 01:12:24;;;;;;;7.40;4.88;;;;;;;19.33;53.81;101800.72;4951831;28;115089;-71
2021/07/08 01:14:51;;;;;;;8.48;5.18;;;;;;;19.29;53.78;101793.81;4953039;28;123332;-72
2021/07/08 01:17:21;;;;;;;8.02;5.47;;;;;;;19.26;53.81;101798.41;4955229;28;124101;-71
2021/07/08 01:19:49;;;;;;;10.35;5.40;;;;;;;19.23;53.95;101804.00;4956464;28;113976;-71
2021/07/08 01:22:16;;;;;;;8.65;5.78;;;;;;;19.20;53.91;101796.16;4956483;28;113870;-71
2021/07/08 01:24:43;;;;;;;7.60;4.88;;;;;;;19.19;53.83;101797.13;4952366;28;124363;-71
2021/07/08 01:27:13;;;;;;;7.15;5.32;;;;;;;19.15;53.94;101795.56;4920300;28;124571;-71
2021/07/08 01:29:40;;;;;;;8.07;4.93;;;;;;;19.12;53.70;101803.84;4956184;28;114998;-71
2021/07/08 01:32:07;;;;;;;9.20;5.85;;;;;;;19.07;53.86;101797.91;4950739;28;112948;-71
2021/07/08 01:34:34;;;;;;;6.93;5.20;;;;;;;19.02;53.98;101798.25;4950134;28;124775;-71
2021/07/08 01:37:02;;;;;;;7.90;5.35;;;;;;;19.00;54.21;101805.50;4954065;28;124079;-71
2021/07/08 01:39:30;;;;;;;9.43;5.63;;;;;;;18.98;54.15;101801.22;4953018;28;113556;-71
2021/07/08 01:41:57;;;;;;;8.48;6.03;;;;;;;18.91;54.18;101792.72;4954582;28;112864;-71
2021/07/08 01:44:24;;;;;;;8.40;5.43;;;;;;;18.86;54.23;101787.63;4954269;28;124289;-71
2021/07/08 01:46:51;;;;;;;8.25;5.95;;;;;;;18.82;54.25;101796.84;4940387;28;123925;-71
2021/07/08 01:49:18;;;;;;;8.43;5.70;;;;;;;18.80;54.42;101790.72;4952680;28;115198;-71
2021/07/08 01:51:45;;;;;;;9.73;6.10;;;;;;;18.79;54.78;101785.41;4957886;28;115491;-71
2021/07/08 01:54:14;;;;;;;8.95;6.22;;;;;;;18.77;54.76;101790.88;4953888;28;123358;-72
2021/07/08 01:56:41;;;;;;;8.23;6.45;;;;;;;18.75;54.66;101795.47;4940017;28;122924;-71
2021/07/08 01:59:08;;;;;;;8.95;6.10;;;;;;;18.73;54.90;101797.41;4956802;28;114230;-72
2021/07/08 02:01:35;;;;;;;8.55;5.95;;;;;;;18.74;55.04;101799.13;4952033;28;116328;-72
2021/07/08 02:04:02;;;;;;;6.97;5.45;;;;;;;18.74;54.88;101787.50;4952419;28;124189;-71
2021/07/08 02:06:29;;;;;;;11.20;5.78;;;;;;;18.74;55.06;101784.84;4956229;28;123405;-72
2021/07/08 02:08:57;;;;;;;8.68;5.22;;;;;;;18.74;55.03;101777.66;4953475;28;114306;-72
2021/07/08 02:11:24;;;;;;;7.88;5.43;;;;;;;18.75;55.08;101783.88;4952185;28;114606;-72
2021/07/08 02:13:52;;;;;;;8.60;5.68;;;;;;;18.74;54.95;101777.66;4953563;28;124780;-72
2021/07/08 02:16:19;;;;;;;6.80;5.38;;;;;;;18.73;54.99;101780.44;4954653;28;123941;-73
2021/07/08 02:18:46;;;;;;;8.73;5.63;;;;;;;18.70;55.01;101776.13;4955580;28;114733;-72
2021/07/08 02:21:14;;;;;;;8.88;6.20;;;;;;;18.68;54.98;101778.03;4952919;28;114261;-72
2021/07/08 02:23:41;;;;;;;8.52;5.50;;;;;;;18.67;55.17;101776.34;4953683;28;123979;-72
2021/07/08 02:26:09;;;;;;;8.05;5.70;;;;;;;18.67;55.19;101781.69;4954288;28;123942;-72
2021/07/08 02:28:38;;;;;;;8.70;5.43;;;;;;;18.66;55.22;101775.44;4958822;28;113122;-72
2021/07/08 02:31:06;;;;;;;7.72;5.10;;;;;;;18.67;55.19;101771.81;4954621;28;114738;-72
2021/07/08 02:33:34;;;;;;;9.43;5.97;;;;;;;18.67;55.42;101779.00;4954677;28;123945;-72
2021/07/08 02:36:02;;;;;;;7.93;5.78;;;;;;;18.68;55.34;101778.03;4949961;28;126961;-73
2021/07/08 02:38:29;;;;;;;7.72;5.55;;;;;;;18.68;55.27;101778.03;4954964;28;115465;-72
2021/07/08 02:40:56;;;;;;;8.65;5.97;;;;;;;18.69;55.42;101785.13;4954318;28;115111;-72
2021/07/08 02:43:23;;;;;;;9.80;5.80;;;;;;;18.70;55.52;101780.63;4950828;28;124829;-72
2021/07/08 02:45:51;;;;;;;10.27;5.97;;;;;;;18.72;55.57;101784.06;4949832;28;124200;-73
2021/07/08 02:48:20;;;;;;;10.75;5.88;;;;;;;18.72;55.98;101782.25;4950610;28;112719;-73
2021/07/08 02:50:52;;;;;;;9.02;5.60;;;;;;;18.75;55.88;101778.53;4951154;28;114104;-73
2021/07/08 02:53:19;;;;;;;8.55;5.88;;;;;;;18.76;55.89;101781.09;4949406;28;124649;-72
2021/07/08 02:55:47;;;;;;;9.65;5.93;;;;;;;18.78;55.94;101773.81;4952235;28;123878;-72
2021/07/08 02:58:15;;;;;;;9.18;5.65;;;;;;;18.80;55.81;101777.28;4932708;28;112719;-72
2021/07/08 03:00:42;;;;;;;9.50;6.38;;;;;;;18.82;55.88;101786.09;4951391;28;113956;-73
2021/07/08 03:03:10;;;;;;;9.75;6.53;;;;;;;18.85;56.03;101779.66;4946062;28;124107;-72
2021/07/08 03:05:38;;;;;;;10.20;6.15;;;;;;;18.86;56.12;101776.88;4946880;28;123069;-71
2021/07/08 03:08:05;;;;;;;9.38;5.78;;;;;;;18.90;56.21;101779.38;4948495;28;114265;-73
2021/07/08 03:10:32;;;;;;;8.43;5.32;;;;;;;18.91;56.03;101773.03;4923119;28;113321;-72
2021/07/08 03:13:00;;;;;;;8.60;5.65;;;;;;;18.94;56.05;101772.84;4945352;28;123441;-71
2021/07/08 03:15:28;;;;;;;9.98;5.57;;;;;;;18.95;56.13;101779.91;4947240;28;124543;-71
2021/07/08 03:17:57;;;;;;;9.27;6.03;;;;;;;18.97;56.15;101791.44;4948811;28;114242;-71
2021/07/08 03:20:27;;;;;;;7.25;5.43;;;;;;;18.99;56.30;101794.88;4943088;28;113111;-71
2021/07/08 03:22:54;;;;;;;8.88;5.53;;;;;;;19.01;56.23;101795.66;4949340;28;124499;-71
2021/07/08 03:25:22;;;;;;;8.27;5.32;;;;;;;19.01;56.26;101795.66;4945604;28;123838;-71
2021/07/08 03:27:51;;;;;;;8.57;5.60;;;;;;;19.02;56.11;101802.72;4944805;28;115369;-71
2021/07/08 03:30:21;;;;;;;8.20;5.65;;;;;;;19.03;56.38;101801.78;4946591;28;116078;-71
2021/07/08 03:32:49;;;;;;;7.72;5.38;;;;;;;19.04;56.42;101795.44;4944623;28;122563;-71
2021/07/08 03:35:24;;;;;;;7.35;5.30;;;;;;;19.06;56.03;101804.25;4943598;28;123948;-71
2021/07/08 03:37:51;;;;;;;8.43;5.18;;;;;;;19.05;56.29;101803.38;4948080;28;114984;-71
2021/07/08 03:40:20;;;;;;;6.57;5.15;;;;;;;19.06;56.56;101809.59;4936595;28;114989;-71
2021/07/08 03:42:49;;;;;;;7.90;5.45;;;;;;;19.06;56.46;101820.34;4947169;28;123787;-71
2021/07/08 03:45:19;;;;;;;8.35;5.90;;;;;;;19.07;56.56;101814.03;4939345;28;123499;-71
2021/07/08 03:47:47;;;;;;;9.45;6.20;;;;;;;19.09;56.52;101809.41;4946084;28;114430;-71
2021/07/08 03:50:15;;;;;;;8.80;5.50;;;;;;;19.10;56.64;101819.22;4946497;28;114331;-71
2021/07/08 03:52:44;;;;;;;8.77;6.13;;;;;;;19.13;56.64;101816.31;4943241;28;122502;-71
2021/07/08 03:55:15;;;;;;;11.05;5.80;;;;;;;19.14;56.52;101812.66;4950679;28;123859;-71
2021/07/08 03:57:55;;;;;;;8.02;5.60;;;;;;;19.15;56.54;101822.44;4949822;28;114608;-72
2021/07/08 04:00:31;;;;;;;10.20;5.90;;;;;;;19.11;56.82;101818.22;4934457;28;114223;-71
2021/07/08 04:03:04;;;;;;;9.07;5.88;;;;;;;19.10;56.91;101813.84;4945734;28;124074;-72
2021/07/08 04:05:32;;;;;;;9.90;6.20;;;;;;;19.09;56.84;101809.41;4948576;28;124187;-71
2021/07/08 04:08:00;;;;;;;7.20;5.63;;;;;;;19.09;56.68;101813.94;4935876;28;113527;-71
2021/07/08 04:10:27;;;;;;;9.15;6.03;;;;;;;19.07;56.99;101811.34;4951324;28;113697;-72
2021/07/08 04:13:00;;;;;;;9.80;6.25;;;;;;;19.06;57.07;101814.97;4948351;28;123916;-71
2021/07/08 04:15:27;;;;;;;9.15;6.10;;;;;;;19.07;56.85;101814.03;4947876;28;124603;-72
2021/07/08 04:17:54;;;;;;;7.70;6.00;;;;;;;19.08;57.01;101812.19;4949234;28;114318;-71
2021/07/08 04:20:21;;;;;;;12.65;6.07;;;;;;;19.09;57.05;101808.56;4944414;28;114956;-72
2021/07/08 04:22:49;;;;;;;10.43;6.10;;;;;;;19.11;57.10;101823.59;4948014;28;124259;-72
2021/07/08 04:25:18;;;;;;;11.20;6.45;;;;;;;19.14;57.21;101818.03;4949164;28;123215;-71
2021/07/08 04:27:46;;;;;;;8.30;5.78;;;;;;;19.17;57.46;101811.59;4948776;28;114646;-71
2021/07/08 04:30:16;;;;;;;8.25;6.05;;;;;;;19.18;57.00;101814.19;4949749;28;114001;-71
2021/07/08 04:32:43;;;;;;;9.27;6.45;;;;;;;19.21;57.10;101824.75;4947762;28;124307;-71
2021/07/08 04:35:17;;;;;;;9.20;6.10;;;;;;;19.23;57.04;101822.81;4951197;28;124219;-72
2021/07/08 04:37:44;;;;;;;14.27;6.78;;;;;;;19.24;56.77;101829.88;4947257;28;114265;-71
2021/07/08 04:40:20;;;;;;;11.32;6.30;;;;;;;19.24;57.07;101824.53;4952835;28;113570;-71
2021/07/08 04:42:48;;;;;;;10.07;6.20;;;;;;;19.26;57.06;101838.69;4952600;28;123987;-71
2021/07/08 04:45:17;;;;;;;11.90;6.50;;;;;;;19.25;56.91;101837.00;4952525;28;124318;-71
2021/07/08 04:47:46;;;;;;;10.98;6.32;;;;;;;19.25;57.02;101834.31;4938329;28;114202;-71
2021/07/08 04:50:16;;;;;;;12.80;6.93;;;;;;;19.24;57.02;101839.78;4957574;28;114407;-71
2021/07/08 04:52:45;;;;;;;12.30;6.65;;;;;;;19.25;57.14;101847.75;4938859;28;124105;-71
2021/07/08 04:55:14;;;;;;;10.77;6.95;;;;;;;19.27;57.07;101861.06;4953117;28;124083;-71
2021/07/08 04:57:41;;;;;;;11.45;7.47;;;;;;;19.29;56.96;101864.53;4948414;28;113590;-71
2021/07/08 05:00:11;;;;;;;11.63;8.02;;;;;;;19.34;57.27;101861.53;4932964;28;113117;-72
2021/07/08 05:02:40;;;;;;;10.93;8.05;;;;;;;19.38;57.43;101852.28;4953512;28;123899;-71
2021/07/08 05:05:08;;;;;;;11.65;8.77;;;;;;;19.43;57.36;101855.53;4952336;28;122564;-71
2021/07/08 05:07:36;;;;;;;15.70;9.07;;;;;;;19.47;57.53;101857.06;4948145;28;114379;-71
2021/07/08 05:10:06;;;;;;;10.98;8.07;;;;;;;19.52;57.40;101859.44;4955632;28;115132;-71
2021/07/08 05:12:33;;;;;;;12.45;7.63;;;;;;;19.56;57.57;101853.75;4957162;28;124809;-71
2021/07/08 05:15:09;;;;;;;10.48;7.80;;;;;;;19.61;57.47;101854.31;4960288;28;123852;-71
2021/07/08 05:17:36;;;;;;;12.75;8.32;;;;;;;19.65;57.27;101850.47;4940436;28;114485;-71
2021/07/08 05:20:05;;;;;;;12.30;8.40;;;;;;;19.69;57.54;101861.00;4956976;28;114807;-71
2021/07/08 05:22:33;;;;;;;15.50;8.65;;;;;;;19.74;57.51;101875.91;4957435;28;122956;-71
2021/07/08 05:25:01;;;;;;;12.48;8.80;;;;;;;19.78;57.54;101876.56;4955231;28;123797;-71
2021/07/08 05:27:31;;;;;;;12.98;9.23;;;;;;;19.83;57.58;101874.41;4958392;28;113467;-71
2021/07/08 05:29:59;;;;;;;15.02;10.60;;;;;;;19.86;57.36;101868.81;4957539;28;112323;-71
2021/07/08 05:32:27;;;;;;;15.00;10.55;;;;;;;19.90;57.44;101875.72;4940328;28;123908;-72
2021/07/08 05:34:54;;;;;;;13.55;10.35;;;;;;;19.97;57.47;101882.41;4956004;28;123532;-72
2021/07/08 05:37:22;;;;;;;14.98;11.05;;;;;;;20.05;57.62;101883.69;4955473;28;114241;-71
2021/07/08 05:39:50;;;;;;;15.10;10.93;;;;;;;20.11;57.60;101883.28;4960432;28;114324;-71
2021/07/08 05:42:17;;;;;;;18.63;11.82;;;;;;;20.19;57.46;101880.91;4939154;28;123590;-71
2021/07/08 05:44:44;;;;;;;16.08;10.98;;;;;;;20.27;57.44;101888.44;4956769;28;123653;-72
2021/07/08 05:47:12;;;;;;;15.38;11.10;;;;;;;20.35;57.55;101881.56;4959753;28;114350;-72
2021/07/08 05:49:55;;;;;;;14.52;10.18;;;;;;;20.42;57.28;101877.47;4931260;28;113709;-72
2021/07/08 05:52:23;;;;;;;16.52;11.60;;;;;;;20.52;57.49;101872.31;4959571;28;123975;-72
2021/07/08 05:54:50;;;;;;;18.38;12.85;;;;;;;20.61;57.28;101870.84;4962011;28;124356;-72
2021/07/08 05:57:18;;;;;;;16.10;12.52;;;;;;;20.64;57.43;101878.69;4953667;28;115785;-72
2021/07/08 05:59:45;;;;;;;16.45;12.30;;;;;;;20.68;57.32;101882.00;4958299;28;114814;-71
2021/07/08 06:02:12;;;;;;;18.05;12.75;;;;;;;20.72;57.49;101870.06;4961292;28;122811;-71
2021/07/08 06:04:40;;;;;;;15.45;11.90;;;;;;;20.77;57.22;101876.81;4954553;28;124343;-71
2021/07/08 06:07:07;;;;;;;20.02;12.32;;;;;;;20.85;57.50;101861.94;4952698;28;114292;-71
2021/07/08 06:09:34;;;;;;;16.00;12.15;;;;;;;20.93;57.44;101856.91;4952413;28;112944;-73
2021/07/08 06:12:02;;;;;;;16.63;11.68;;;;;;;21.02;57.37;101853.53;4951832;28;124063;-72
2021/07/08 06:14:29;;;;;;;14.52;11.38;;;;;;;21.12;57.44;101862.66;4951176;28;124656;-72
2021/07/08 06:16:56;;;;;;;16.95;12.95;;;;;;;21.22;57.38;101864.66;4951293;28;114313;-72
2021/07/08 06:19:23;;;;;;;18.05;12.48;;;;;;;21.33;57.48;101872.81;4949318;28;114164;-72
2021/07/08 06:21:50;;;;;;;17.55;12.10;;;;;;;21.42;57.12;101874.81;4950908;28;126080;-72
2021/07/08 06:24:17;;;;;;;16.27;12.45;;;;;;;21.51;57.06;101876.88;4950537;28;124224;-72
2021/07/08 06:26:46;;;;;;;21.63;13.02;;;;;;;21.62;57.02;101883.28;4952165;28;114963;-72
2021/07/08 06:29:13;;;;;;;17.27;13.38;;;;;;;21.69;56.83;101889.94;4951313;28;114079;-71
2021/07/08 06:31:40;;;;;;;18.65;13.98;;;;;;;21.75;56.93;101889.47;4953418;28;123652;-71
2021/07/08 06:34:07;;;;;;;20.08;14.15;;;;;;;21.83;56.71;101887.06;4951742;28;123822;-70
2021/07/08 06:36:34;;;;;;;18.77;14.30;;;;;;;21.91;56.74;101895.41;4952149;28;114362;-71
2021/07/08 06:39:03;;;;;;;17.38;13.50;;;;;;;22.01;56.78;101895.56;4952524;28;113975;-71
2021/07/08 06:41:32;;;;;;;18.83;14.38;;;;;;;22.12;56.55;101892.03;4937094;28;123239;-71
2021/07/08 06:43:59;;;;;;;19.25;13.77;;;;;;;22.25;56.47;101902.75;4931128;28;123748;-70
2021/07/08 06:46:30;;;;;;;17.63;14.32;;;;;;;22.37;56.46;101895.56;4950512;28;115482;-70
2021/07/08 06:48:59;;;;;;;20.73;14.43;;;;;;;22.50;56.23;101899.84;4948286;28;115133;-71
2021/07/08 06:51:29;;;;;;;21.00;13.98;;;;;;;22.65;56.23;101911.28;4948752;28;124115;-70
2021/07/08 06:53:56;;;;;;;23.02;15.50;;;;;;;22.81;56.12;101915.47;4930468;28;123640;-70
2021/07/08 06:56:24;;;;;;;20.38;14.48;;;;;;;22.97;56.02;101907.84;4951666;28;114347;-70
2021/07/08 06:58:51;;;;;;;20.30;14.00;;;;;;;23.15;55.35;101910.06;4939657;28;113001;-71
2021/07/08 07:01:19;;;;;;;19.33;14.15;;;;;;;23.30;55.36;101911.50;4947851;28;122794;-71
2021/07/08 07:03:46;;;;;;;19.15;14.68;;;;;;;23.44;55.09;101910.41;4944842;28;123114;-69
2021/07/08 07:06:13;;;;;;;21.00;14.20;;;;;;;23.62;54.68;101918.81;4942785;28;114552;-70
2021/07/08 07:08:42;;;;;;;20.10;14.10;;;;;;;23.79;54.67;101918.31;4952332;28;114227;-70
2021/07/08 07:11:10;;;;;;;17.38;14.05;;;;;;;23.99;54.52;101922.00;4947490;28;124036;-70
2021/07/08 07:13:37;;;;;;;19.92;14.98;;;;;;;24.18;54.30;101924.00;4950264;28;125137;-70
2021/07/08 07:16:05;;;;;;;19.02;13.95;;;;;;;24.37;53.94;101922.41;4952652;28;114129;-70
2021/07/08 07:18:37;;;;;;;19.67;14.27;;;;;;;24.57;53.47;101921.56;4951275;28;114288;-72
2021/07/08 07:21:08;;;;;;;18.00;13.68;;;;;;;24.74;53.33;101930.06;4951232;28;124031;-69
2021/07/08 07:23:35;;;;;;;16.83;13.32;;;;;;;24.92;53.34;101928.44;4948633;28;122846;-69
2021/07/08 07:26:03;;;;;;;17.98;13.35;;;;;;;25.10;52.92;101930.50;4951689;28;114216;-71
2021/07/08 07:28:30;;;;;;;20.15;14.23;;;;;;;25.23;52.89;101931.13;4950061;28;114326;-70
2021/07/08 07:30:57;;;;;;;21.00;14.05;;;;;;;25.32;52.10;101924.88;4947085;28;124382;-70
2021/07/08 07:33:24;;;;;;;18.52;13.00;;;;;;;25.38;51.51;101924.31;4942230;28;122010;-69
2021/07/08 07:35:51;;;;;;;19.00;14.00;;;;;;;25.38;50.55;101924.31;4949409;28;115276;-70
2021/07/08 07:38:18;;;;;;;17.55;13.98;;;;;;;25.33;50.82;101921.16;4945206;28;114887;-71
2021/07/08 07:40:45;;;;;;;16.60;13.73;;;;;;;25.35;51.36;101924.59;4929122;28;123281;-69
2021/07/08 07:43:13;;;;;;;18.33;14.63;;;;;;;25.43;51.28;101932.91;4946575;28;123963;-71
2021/07/08 07:45:41;;;;;;;17.75;14.70;;;;;;;25.52;51.15;101930.34;4925685;28;114166;-70
2021/07/08 07:48:09;;;;;;;19.33;14.60;;;;;;;25.67;51.36;101945.19;4930947;28;113799;-70
2021/07/08 07:50:37;;;;;;;19.23;14.27;;;;;;;25.86;51.48;101944.34;4931769;28;124039;-70
2021/07/08 07:53:04;;;;;;;15.35;10.90;;;;;;;26.00;51.15;101945.84;4950171;28;123697;-69
2021/07/08 07:55:32;;;;;;;13.85;10.40;;;;;;;26.13;50.98;101946.41;4952304;28;114377;-69
2021/07/08 07:58:01;;;;;;;12.55;9.48;;;;;;;26.23;50.21;101947.22;4941699;28;113397;-71
2021/07/08 08:00:29;;;;;;;13.90;9.68;;;;;;;26.30;49.62;101935.81;4950503;28;124283;-71
2021/07/08 08:02:56;;;;;;;12.30;9.32;;;;;;;26.35;49.92;101936.19;4950290;28;123786;-69
2021/07/08 08:10:41;;;;;;;14.63;10.43;;;;;;;26.56;49.36;101931.44;4939844;28;123984;-70
2021/07/08 08:13:09;;;;;;;14.23;10.48;;;;;;;26.61;49.27;101929.16;4951066;28;124186;-70
2021/07/08 08:15:37;;;;;;;14.88;11.05;;;;;;;26.70;48.71;101921.97;4950989;28;115002;-70
2021/07/08 08:18:05;;;;;;;15.07;10.60;;;;;;;26.76;48.80;101920.53;4951171;28;113974;-70
2021/07/08 08:20:34;;;;;;;13.07;10.80;;;;;;;26.78;48.88;101918.50;4951370;28;124120;-70
2021/07/08 08:23:02;;;;;;;15.15;10.63;;;;;;;26.75;48.17;101913.41;4950291;28;124742;-69
2021/07/08 08:25:30;;;;;;;14.30;10.25;;;;;;;26.73;48.49;101920.81;4948915;28;115635;-69
2021/07/08 08:28:01;;;;;;;15.73;11.07;;;;;;;26.75;48.11;101921.56;4933128;28;115097;-70
2021/07/08 08:30:28;;;;;;;13.90;10.60;;;;;;;26.75;48.15;101929.72;4951019;28;123527;-71
2021/07/08 08:32:55;;;;;;;15.30;9.80;;;;;;;26.75;48.06;101930.56;4951395;28;124194;-69
2021/07/08 08:35:22;;;;;;;13.70;10.70;;;;;;;26.75;48.18;101929.72;4950754;28;114488;-70
2021/07/08 08:37:50;;;;;;;14.68;10.07;;;;;;;26.70;48.14;101932.00;4946673;28;114033;-69
2021/07/08 08:40:18;;;;;;;13.15;9.82;;;;;;;26.66;47.98;101936.03;4950983;28;124385;-69
2021/07/08 08:42:45;;;;;;;13.85;9.70;;;;;;;26.63;47.67;101948.03;4951395;28;123851;-69
2021/07/08 08:45:18;;;;;;;12.77;8.85;;;;;;;26.60;47.59;101949.19;4960305;28;114206;-69
2021/07/08 08:48:01;;;;;;;12.88;9.93;;;;;;;26.54;47.87;101948.88;4960906;28;114157;-69
2021/07/08 08:50:35;;;;;;;12.90;9.55;;;;;;;26.46;47.58;101944.19;4961787;28;124192;-69
2021/07/08 08:53:03;;;;;;;14.02;10.48;;;;;;;26.41;47.85;101941.06;4956649;28;124043;-69
2021/07/08 08:55:34;;;;;;;15.23;10.88;;;;;;;26.34;47.22;101942.66;4953031;28;113627;-70
2021/07/08 08:58:06;;;;;;;13.70;10.00;;;;;;;26.23;47.60;101955.38;4937070;28;113948;-69
2021/07/08 09:00:38;;;;;;;13.00;9.70;;;;;;;26.16;47.63;101956.97;4941563;28;124135;-69
2021/07/08 09:03:07;;;;;;;14.75;9.27;;;;;;;26.10;47.58;101946.66;4937059;28;123801;-69
2021/07/08 09:05:37;;;;;;;13.93;10.13;;;;;;;26.03;47.35;101940.09;4945860;28;114089;-69
2021/07/08 09:08:17;;;;;;;14.05;9.85;;;;;;;25.95;47.82;101948.13;4954744;28;114245;-70
2021/07/08 09:10:46;;;;;;;13.73;9.95;;;;;;;25.91;47.68;101941.22;4943188;28;124416;-70
2021/07/08 09:13:14;;;;;;;15.02;10.55;;;;;;;25.90;47.91;101944.94;4948035;28;123232;-69
2021/07/08 09:15:41;;;;;;;15.70;9.82;;;;;;;25.92;47.80;101942.97;4953185;28;115567;-70
2021/07/08 09:18:12;;;;;;;15.30;10.05;;;;;;;25.95;48.27;101948.13;4954129;28;114979;-70
2021/07/08 09:20:39;;;;;;;13.68;9.68;;;;;;;25.99;48.38;101954.97;4954059;28;124245;-69
2021/07/08 09:23:15;;;;;;;15.48;9.95;;;;;;;26.07;48.26;101949.69;4953488;28;124179;-70
2021/07/08 09:25:44;;;;;;;14.55;10.18;;;;;;;26.18;48.43;101949.53;4952851;28;114229;-69
2021/07/08 09:28:22;;;;;;;16.38;10.32;;;;;;;26.28;47.97;101960.38;4953378;28;113967;-70
2021/07/08 09:30:57;;;;;;;13.25;9.20;;;;;;;26.33;47.89;101978.94;4949903;28;124104;-70
2021/07/08 09:33:28;;;;;;;;;;;;;;;26.37;48.45;101983.09;4955487;28;123661;-70
2021/07/08 09:36:16;;;;;;;14.63;9.57;;;;;;;26.50;48.09;101972.78;4963317;28;113865;-69
2021/07/08 09:38:57;;;;;;;14.93;9.68;;;;;;;26.60;48.32;101965.50;4955704;28;113901;-70
2021/07/08 09:41:26;;;;;;;13.82;10.23;;;;;;;26.69;48.08;101962.91;4942837;28;124254;-70
2021/07/08 09:43:53;;;;;;;13.85;10.50;;;;;;;26.77;47.58;101963.03;4953386;28;124266;-69
2021/07/08 09:46:35;;;;;;;16.00;10.20;;;;;;;26.81;47.86;101956.28;4953751;28;114512;-70
2021/07/08 09:49:08;;;;;;;14.98;10.68;;;;;;;26.89;47.87;101964.53;4953626;28;114355;-69
2021/07/08 09:51:36;;;;;;;14.00;9.65;;;;;;;27.02;47.89;101974.25;4940017;28;123950;-69
2021/07/08 09:54:26;;;;;;;11.73;8.88;;;;;;;27.09;47.81;101975.34;4952420;28;124005;-69
2021/07/08 09:56:53;;;;;;;14.57;9.70;;;;;;;27.18;47.60;101977.16;4952415;28;114631;-70
2021/07/08 09:59:22;;;;;;;14.32;9.27;;;;;;;27.25;46.59;101975.56;4939614;28;113740;-70
2021/07/08 10:01:57;;;;;;;15.68;10.10;;;;;;;27.26;46.47;101971.88;4956615;28;124366;-70
2021/07/08 10:04:25;;;;;;;11.40;8.10;;;;;;;27.27;46.48;101973.56;4953219;28;123505;-70
2021/07/08 10:06:54;;;;;;;10.45;7.32;;;;;;;27.28;46.12;101969.00;4950027;28;115558;-70
2021/07/08 10:09:23;;;;;;;10.57;7.72;;;;;;;27.27;46.17;101968.13;4953116;28;113566;-70
2021/07/08 10:11:54;;;;;;;11.98;6.90;;;;;;;27.28;45.35;101964.41;4952549;28;124764;-70
2021/07/08 10:14:24;;;;;;;9.77;7.10;;;;;;;27.31;45.48;101969.56;4951855;28;123834;-70
2021/07/08 10:16:54;;;;;;;12.05;7.75;;;;;;;27.38;45.53;101964.34;4950077;28;114454;-69
2021/07/08 10:19:23;;;;;;;10.93;7.70;;;;;;;27.44;45.55;101968.31;4950600;28;113122;-70
2021/07/08 10:21:52;;;;;;;11.02;7.82;;;;;;;27.52;45.17;101973.84;4952441;28;124702;-69
2021/07/08 10:24:21;;;;;;;9.02;6.68;;;;;;;27.62;45.64;101973.81;4950332;28;122589;-70
2021/07/08 10:26:48;;;;;;;11.20;7.63;;;;;;;27.70;45.38;101963.84;4952673;28;113456;-70
2021/07/08 10:29:16;;;;;;;13.60;7.88;;;;;;;27.79;45.11;101966.66;4952309;28;114003;-70
2021/07/08 10:31:49;;;;;;;11.07;7.40;;;;;;;27.89;44.92;101964.75;4950127;28;123339;-70
2021/07/08 10:34:20;;;;;;;11.98;7.82;;;;;;;28.00;44.58;101958.22;4951616;28;123762;-70
2021/07/08 10:36:49;;;;;;;10.77;7.78;;;;;;;28.04;44.18;101946.81;4952489;28;114827;-70
2021/07/08 10:39:20;;;;;;;10.05;6.50;;;;;;;28.09;44.37;101941.78;4940463;28;114490;-70
2021/07/08 10:41:55;;;;;;;10.05;6.15;;;;;;;28.12;43.96;101941.47;4950436;28;123690;-70
2021/07/08 10:44:40;;;;;;;8.65;6.07;;;;;;;28.10;44.25;101929.84;4952123;28;123877;-70
2021/07/08 10:47:27;;;;;;;;;;;;;;;28.09;44.62;101933.59;4950875;28;112653;-70
2021/07/08 10:49:54;;;;;;;8.57;5.57;;;;;;;28.11;43.20;101926.13;4953841;28;114745;-70
2021/07/08 10:52:41;;;;;;;8.48;5.90;;;;;;;28.06;43.43;101925.72;4954683;28;123760;-70
2021/07/08 10:55:09;;;;;;;7.45;4.63;;;;;;;28.10;43.75;101927.13;4954197;28;124940;-70
2021/07/08 10:57:38;;;;;;;8.68;5.30;;;;;;;28.19;44.01;101919.03;4954087;28;115648;-70
2021/07/08 11:00:08;;;;;;;11.32;5.53;;;;;;;28.29;44.09;101917.06;4952302;28;115563;-70
2021/07/08 11:02:50;;;;;;;8.32;6.30;;;;;;;28.39;44.10;101920.53;4952376;28;124167;-70
2021/07/08 11:05:54;;;;;;;8.95;5.93;;;;;;;28.49;43.74;101915.81;4952981;28;123174;-69
2021/07/08 11:08:47;;;;;;;10.95;5.75;;;;;;;28.54;43.62;101927.13;4952518;28;97400;-70
2021/07/08 11:11:21;;;;;;;10.07;4.75;;;;;;;28.56;43.11;101931.56;4952843;28;114159;-70
2021/07/08 11:13:54;;;;;;;9.52;5.13;;;;;;;28.54;42.88;101940.78;4952125;28;124790;-70
2021/07/08 11:16:42;;;;;;;6.82;4.75;;;;;;;28.50;42.85;101928.44;4955009;28;125151;-70
2021/07/08 11:19:13;;;;;;;9.05;5.55;;;;;;;28.46;42.59;101916.16;4953363;28;113717;-69
2021/07/08 11:21:49;;;;;;;7.60;5.07;;;;;;;28.44;42.90;101923.63;4949409;28;114575;-70
2021/07/08 11:24:18;;;;;;;6.63;4.40;;;;;;;28.48;42.53;101925.03;4947773;28;124257;-69
2021/07/08 11:26:56;;;;;;;5.75;3.85;;;;;;;28.51;42.42;101924.69;4950685;28;124326;-70